Time;durP1;ratioP1;P1;durP2;ratioP2;P2;SDS_P1;SDS_P2;PMS_P1;PMS_P2;Temp;Humidity;BMP_temperature;BMP_pressure;BME280_temperature;BME280_humidity;BME280_pressure;Samples;Min_cycle;Max_cycle;Signal;HPM_P1;HPM_P2
2022/04/10 00:02:53;;;;;;;2.20;1.60;;;;;;;19.75;35.98;101808.97;16146165;19;129424;-44
2022/04/10 00:08:15;;;;;;;2.80;1.55;;;;;;;19.71;36.11;101806.88;16139723;19;129756;-41
2022/04/10 00:13:38;;;;;;;1.95;1.58;;;;;;;19.66;35.98;101811.19;16143905;19;131267;-42
2022/04/10 00:19:04;;;;;;;2.15;1.65;;;;;;;19.63;36.04;101803.34;16145336;19;129806;-42
2022/04/10 00:24:26;;;;;;;1.95;1.27;;;;;;;19.61;36.25;101818.53;16144223;19;130237;-41
2022/04/10 00:29:48;;;;;;;1.40;1.30;;;;;;;19.58;35.93;101813.44;16142059;19;129077;-41
2022/04/10 00:35:15;;;;;;;1.58;1.48;;;;;;;19.55;36.18;101816.66;16142374;19;130215;-43
2022/04/10 00:40:37;;;;;;;1.77;1.33;;;;;;;19.52;35.82;101802.16;16143447;19;129624;-43
2022/04/10 00:46:00;;;;;;;1.80;1.17;;;;;;;19.50;35.79;101806.25;16137353;19;129450;-42
2022/04/10 00:57:03;;;;;;;2.22;1.38;;;;;;;19.43;35.87;101805.50;16140865;19;129504;-43
2022/04/10 01:02:25;;;;;;;2.55;1.10;;;;;;;19.40;35.90;101809.56;16137906;19;129136;-42
2022/04/10 01:07:47;;;;;;;1.70;1.20;;;;;;;19.37;36.09;101802.56;16136234;19;129454;-41
2022/04/10 01:13:09;;;;;;;4.35;1.10;;;;;;;19.36;36.04;101816.66;16142763;19;129440;-42
2022/04/10 01:18:33;;;;;;;1.98;1.08;;;;;;;19.34;35.93;101816.03;16134231;19;130515;-41
2022/04/10 01:23:56;;;;;;;1.33;1.05;;;;;;;19.31;35.92;101803.50;16141181;19;129230;-41
2022/04/10 01:29:17;;;;;;;1.95;1.30;;;;;;;19.29;36.06;101802.88;16135031;19;130437;-41
2022/04/10 01:34:40;;;;;;;1.20;0.90;;;;;;;19.26;35.89;101811.63;16140310;19;129511;-41
2022/04/10 01:40:04;;;;;;;0.80;0.80;;;;;;;19.21;36.48;101805.91;16135320;19;129985;-41
2022/04/10 01:45:25;;;;;;;0.85;0.75;;;;;;;19.20;36.32;101807.81;16135019;19;130527;-42
2022/04/10 01:50:47;;;;;;;1.20;0.90;;;;;;;19.17;35.93;101801.88;16135131;19;129902;-41
2022/04/10 01:56:10;;;;;;;1.02;0.80;;;;;;;19.16;35.99;101800.19;16137210;19;129624;-42
2022/04/10 02:01:32;;;;;;;2.60;1.10;;;;;;;19.16;36.17;101816.84;16138398;19;129567;-41
2022/04/10 02:06:54;;;;;;;1.25;0.90;;;;;;;19.13;35.88;101811.72;16132761;19;129734;-41
2022/04/10 02:12:16;;;;;;;1.58;0.77;;;;;;;19.09;36.18;101811.34;16136504;19;129379;-41
2022/04/10 02:17:37;;;;;;;3.33;1.38;;;;;;;19.06;36.13;101809.03;16131691;19;130375;-42
2022/04/10 02:22:59;;;;;;;1.20;0.88;;;;;;;19.05;36.04;101816.50;16136342;19;129290;-41
2022/04/10 02:28:21;;;;;;;2.90;0.80;;;;;;;19.04;36.07;101817.59;16132123;19;129296;-42
2022/04/10 02:33:43;;;;;;;0.75;0.60;;;;;;;19.03;36.27;101807.56;16133060;19;129735;-42
2022/04/10 02:39:05;;;;;;;0.60;0.60;;;;;;;19.01;36.16;101795.84;16134792;19;130432;-42
2022/04/10 02:44:27;;;;;;;0.70;0.57;;;;;;;18.98;36.35;101807.38;16133029;19;129938;-41
2022/04/10 02:49:48;;;;;;;0.80;0.60;;;;;;;18.97;36.46;101807.63;16134392;19;130581;-45
2022/04/10 02:55:10;;;;;;;0.93;0.50;;;;;;;18.94;36.33;101811.72;16150040;19;129668;-41
2022/04/10 03:00:32;;;;;;;0.93;0.60;;;;;;;18.90;36.39;101830.69;16147823;19;129753;-42
2022/04/10 03:05:54;;;;;;;1.55;0.65;;;;;;;18.90;36.41;101825.16;16149766;19;129090;-41
2022/04/10 03:11:16;;;;;;;0.68;0.47;;;;;;;18.88;36.11;101829.22;16149485;19;128877;-43
2022/04/10 03:16:37;;;;;;;1.52;0.80;;;;;;;18.85;36.18;101835.22;16145128;19;129444;-42
2022/04/10 03:21:59;;;;;;;1.38;0.80;;;;;;;18.84;36.14;101836.28;16148570;19;130414;-47
2022/04/10 03:27:21;;;;;;;0.80;0.60;;;;;;;18.82;36.17;101835.69;16143276;19;129414;-42
2022/04/10 03:32:43;;;;;;;0.60;0.38;;;;;;;18.80;36.40;101838.69;16147446;19;131182;-41
2022/04/10 03:38:05;;;;;;;1.27;0.50;;;;;;;18.80;36.13;101846.16;16146581;19;130045;-40
2022/04/10 03:43:26;;;;;;;1.25;0.60;;;;;;;18.76;36.14;101846.59;16147697;19;129730;-41
2022/04/10 03:48:48;;;;;;;0.35;0.32;;;;;;;18.76;36.19;101848.53;16142036;19;129916;-41
2022/04/10 03:54:10;;;;;;;0.63;0.50;;;;;;;18.74;35.97;101859.00;16147263;19;129791;-43
2022/04/10 03:59:32;;;;;;;1.08;0.77;;;;;;;18.70;36.13;101858.59;16147088;19;129312;-43
2022/04/10 04:04:54;;;;;;;0.40;0.40;;;;;;;18.69;36.37;101862.44;16139969;19;130055;-42
2022/04/10 04:10:16;;;;;;;0.80;0.50;;;;;;;18.67;36.12;101864.59;16137223;19;129826;-41
2022/04/10 04:15:38;;;;;;;0.50;0.40;;;;;;;18.67;36.38;101870.13;16142308;19;129289;-44
2022/04/10 04:21:02;;;;;;;0.50;0.40;;;;;;;18.64;36.09;101867.78;16143748;19;130574;-41
2022/04/10 04:26:27;;;;;;;0.70;0.45;;;;;;;18.63;35.95;101871.63;16143306;19;129539;-45
2022/04/10 04:31:49;;;;;;;0.30;0.30;;;;;;;18.63;36.19;101873.56;16143171;19;130509;-43
2022/04/10 04:37:12;;;;;;;0.57;0.40;;;;;;;18.60;36.28;101864.63;16143779;19;130096;-41
2022/04/10 04:42:34;;;;;;;0.38;0.30;;;;;;;18.58;35.96;101877.00;16140224;19;129098;-43
2022/04/10 04:47:56;;;;;;;1.38;0.55;;;;;;;18.57;35.92;101867.84;16137381;19;129490;-42
2022/04/10 04:53:18;;;;;;;0.93;0.40;;;;;;;18.55;36.13;101878.28;16142868;19;130206;-41
2022/04/10 04:58:39;;;;;;;0.38;0.30;;;;;;;18.55;36.00;101885.78;16141927;19;130023;-41
2022/04/10 05:04:01;;;;;;;0.52;0.32;;;;;;;18.54;36.23;101897.91;16140508;19;128903;-42
2022/04/10 05:09:23;;;;;;;0.85;0.55;;;;;;;18.49;36.38;101900.50;16137848;19;130018;-43
2022/04/10 05:14:46;;;;;;;0.45;0.30;;;;;;;18.49;36.35;101919.88;16139420;19;130049;-42
2022/04/10 05:20:08;;;;;;;1.30;0.20;;;;;;;18.50;35.98;101913.28;16136898;19;129474;-44
2022/04/10 05:25:30;;;;;;;0.50;0.40;;;;;;;18.46;36.21;101918.41;16139421;19;129401;-41
2022/04/10 05:30:52;;;;;;;0.32;0.30;;;;;;;18.43;36.23;101936.34;16138975;19;129644;-41
2022/04/10 05:36:15;;;;;;;0.60;0.40;;;;;;;18.45;36.08;101933.34;16139759;19;129265;-41
2022/04/10 05:41:36;;;;;;;0.57;0.38;;;;;;;18.58;35.91;101940.75;16139482;19;129474;-41
2022/04/10 05:46:58;;;;;;;0.43;0.20;;;;;;;18.96;35.48;101939.84;16133816;19;130126;-41
2022/04/10 05:52:20;;;;;;;0.45;0.32;;;;;;;19.57;35.09;101931.09;16138931;19;129469;-44
2022/04/10 05:57:42;;;;;;;0.55;0.40;;;;;;;20.33;34.14;101944.78;16137818;19;130325;-41
2022/04/10 06:03:04;;;;;;;0.57;0.40;;;;;;;20.87;33.25;101954.16;16130627;19;133300;-40
2022/04/10 06:08:26;;;;;;;0.57;0.20;;;;;;;21.16;32.96;101957.16;16135289;19;130536;-42
2022/04/10 06:13:48;;;;;;;0.55;0.50;;;;;;;21.22;32.87;101966.47;16137718;19;129311;-45
2022/04/10 06:19:09;;;;;;;0.50;0.30;;;;;;;21.15;32.64;101961.00;16134495;19;129082;-41
2022/04/10 06:24:31;;;;;;;0.25;0.20;;;;;;;21.05;32.71;101980.19;16139156;19;129440;-41
2022/04/10 06:29:53;;;;;;;0.30;0.20;;;;;;;20.89;32.91;101990.94;16147149;19;129477;-43
2022/04/10 06:35:15;;;;;;;0.50;0.40;;;;;;;20.74;33.25;101982.94;16152287;19;129181;-40
2022/04/10 06:40:36;;;;;;;0.45;0.30;;;;;;;20.59;33.00;101994.50;16145875;19;133359;-40
2022/04/10 06:45:58;;;;;;;0.35;0.30;;;;;;;20.43;33.39;101990.44;16145915;19;129507;-42
2022/04/10 06:51:23;;;;;;;3.40;0.50;;;;;;;20.39;33.33;101996.69;16148336;19;129136;-42
2022/04/10 06:56:45;;;;;;;0.50;0.40;;;;;;;20.41;33.80;102005.66;16148022;19;129537;-41
2022/04/10 07:02:07;;;;;;;4.32;2.33;;;;;;;20.39;32.58;101999.47;16144666;19;130459;-41
2022/04/10 07:07:29;;;;;;;8.13;2.40;;;;;;;20.38;31.39;102011.66;16147607;19;131282;-40
2022/04/10 07:12:50;;;;;;;7.53;2.30;;;;;;;20.38;31.68;102018.06;16148682;19;129347;-42
2022/04/10 07:18:13;;;;;;;8.18;2.35;;;;;;;20.41;32.17;102016.75;16146550;19;130346;-40
2022/04/10 07:23:43;;;;;;;7.38;2.25;;;;;;;20.43;31.83;102026.56;16148026;19;129076;-40
2022/04/10 07:29:05;;;;;;;6.47;2.40;;;;;;;20.53;32.21;102017.69;16145580;19;129511;-45
2022/04/10 07:34:27;;;;;;;6.78;2.22;;;;;;;20.73;31.98;102030.47;16146587;19;129507;-41
2022/04/10 07:39:49;;;;;;;8.68;2.17;;;;;;;21.02;31.50;102039.13;16144672;19;129718;-42
2022/04/10 07:50:55;;;;;;;9.15;1.98;;;;;;;21.86;31.34;102042.97;16139828;19;129942;-42
2022/04/10 07:56:17;;;;;;;8.00;2.20;;;;;;;22.30;31.22;102043.44;16143847;19;129413;-42
2022/04/10 08:01:41;;;;;;;6.47;2.00;;;;;;;22.72;30.53;102045.19;16144654;19;130256;-46
2022/04/10 08:07:03;;;;;;;4.60;1.60;;;;;;;22.99;30.41;102050.22;16140652;19;130809;-43
2022/04/10 08:12:28;;;;;;;4.45;1.50;;;;;;;23.05;30.47;102058.44;16142428;19;129812;-42
2022/04/10 08:17:50;;;;;;;4.15;1.30;;;;;;;22.98;29.94;102063.34;16139333;19;129585;-44
2022/04/10 08:23:11;;;;;;;4.30;1.35;;;;;;;22.86;30.40;102056.91;16140991;19;130450;-42
2022/04/10 08:28:34;;;;;;;2.63;1.17;;;;;;;22.70;30.47;102053.81;16141169;19;129271;-42
2022/04/10 08:33:56;;;;;;;3.90;1.20;;;;;;;22.55;30.79;102056.25;16143821;19;131716;-42
2022/04/10 08:39:18;;;;;;;5.28;1.27;;;;;;;22.39;31.00;102077.38;16140951;19;129393;-41
2022/04/10 08:44:40;;;;;;;4.90;1.70;;;;;;;22.20;30.64;102074.72;16140326;19;129548;-42
2022/04/10 08:50:02;;;;;;;3.30;1.38;;;;;;;22.03;30.31;102077.34;16137129;19;129912;-49
2022/04/10 08:55:25;;;;;;;6.90;1.50;;;;;;;21.87;29.89;102083.66;16138953;19;129495;-45
2022/04/10 09:00:47;;;;;;;8.75;1.77;;;;;;;21.73;30.40;102081.09;16142064;19;129479;-45
2022/04/10 09:06:10;;;;;;;7.13;1.48;;;;;;;21.60;29.51;102079.34;16139512;19;129416;-43
2022/04/10 09:11:33;;;;;;;8.77;1.67;;;;;;;21.48;29.62;102079.31;16133980;19;129346;-43
2022/04/10 09:17:16;;;;;;;7.63;1.40;;;;;;;21.39;29.81;102083.53;16135778;19;134424;-43
2022/04/10 09:22:38;;;;;;;6.30;1.40;;;;;;;21.26;30.00;102078.16;16137537;19;131036;-41
2022/04/10 09:28:00;;;;;;;7.47;1.20;;;;;;;21.13;30.20;102080.03;16139614;19;128919;-41
2022/04/10 09:33:21;;;;;;;8.00;1.58;;;;;;;21.03;30.00;102082.53;16136674;19;129918;-42
2022/04/10 09:38:45;;;;;;;8.45;1.75;;;;;;;20.95;30.55;102074.50;16137463;19;129523;-41
2022/04/10 09:44:12;;;;;;;5.07;1.20;;;;;;;20.88;30.55;102072.66;16137967;19;129541;-40
2022/04/10 09:49:38;;;;;;;5.57;1.45;;;;;;;20.83;30.62;102066.13;16134898;19;130322;-42
2022/04/10 09:55:00;;;;;;;3.70;1.42;;;;;;;20.75;30.45;102068.13;16135318;19;129782;-41
2022/04/10 10:00:25;;;;;;;4.13;1.02;;;;;;;20.67;30.45;102067.56;16136395;19;129198;-47
2022/04/10 10:05:49;;;;;;;7.25;1.10;;;;;;;20.58;30.46;102072.59;16139898;19;130190;-42
2022/04/10 10:11:12;;;;;;;4.82;1.17;;;;;;;20.48;30.67;102070.34;16132005;19;129790;-42
2022/04/10 10:16:34;;;;;;;5.18;1.20;;;;;;;20.42;30.32;102065.72;16136103;19;129813;-42
2022/04/10 10:21:57;;;;;;;5.93;1.20;;;;;;;20.36;30.46;102073.03;16131366;19;129631;-41
2022/04/10 10:27:49;;;;;;;6.22;1.10;;;;;;;20.33;30.39;102067.06;16134922;19;129447;-43
2022/04/10 10:33:21;;;;;;;5.53;1.15;;;;;;;20.32;30.48;102065.38;16130829;19;129778;-41
2022/04/10 10:38:51;;;;;;;4.25;1.00;;;;;;;20.29;31.09;102058.34;16136782;19;129373;-40
2022/04/10 10:44:39;;;;;;;5.55;0.90;;;;;;;20.28;30.72;102063.06;16135387;19;129735;-44
2022/04/10 10:50:31;;;;;;;3.90;1.10;;;;;;;20.34;31.02;102049.31;16132175;19;129495;-40
2022/04/10 10:55:53;;;;;;;6.72;0.85;;;;;;;20.37;31.37;102060.00;16134765;19;129900;-43
2022/04/10 11:01:18;;;;;;;4.97;1.00;;;;;;;20.38;31.35;102053.34;16132836;19;129606;-44
2022/04/10 11:06:45;;;;;;;4.15;1.20;;;;;;;20.36;31.02;102050.81;16132926;19;129464;-40
2022/04/10 11:12:13;;;;;;;4.32;1.10;;;;;;;20.34;30.98;102049.31;16137190;19;129114;-42
2022/04/10 11:17:35;;;;;;;3.53;1.00;;;;;;;20.29;31.23;102039.78;16149452;19;129614;-41
2022/04/10 11:23:00;;;;;;;2.00;0.60;;;;;;;20.24;30.83;102034.03;16143422;19;129133;-44
2022/04/10 11:28:24;;;;;;;2.60;0.77;;;;;;;20.19;31.00;102036.66;16147892;19;129518;-42
2022/04/10 11:33:51;;;;;;;2.55;0.93;;;;;;;20.16;31.04;102042.69;16147878;19;131720;-42
2022/04/10 11:39:14;;;;;;;1.52;0.80;;;;;;;20.12;30.98;102039.50;16143740;19;129602;-40
2022/04/10 11:44:36;;;;;;;2.85;1.25;;;;;;;20.12;31.30;102035.88;16146350;19;128957;-43
2022/04/10 11:49:59;;;;;;;2.55;0.63;;;;;;;20.12;31.48;102036.72;16144443;19;129912;-43
2022/04/10 11:55:21;;;;;;;1.63;0.60;;;;;;;20.12;31.35;102036.72;16144568;19;129067;-38
2022/04/10 12:00:45;;;;;;;2.80;0.70;;;;;;;20.11;31.20;102039.72;16146130;19;129532;-43
2022/04/10 12:06:09;;;;;;;3.70;0.90;;;;;;;20.10;31.20;102038.03;16146140;19;130329;-40
2022/04/10 12:11:43;;;;;;;2.78;0.80;;;;;;;20.09;31.37;102025.22;16140178;19;129355;-39
2022/04/10 12:17:19;;;;;;;2.58;0.80;;;;;;;20.05;31.53;102013.72;16144883;19;128984;-42
2022/04/10 12:22:42;;;;;;;2.70;0.57;;;;;;;20.04;31.40;102023.13;16136289;19;129490;-39
2022/04/10 12:28:04;;;;;;;3.13;0.90;;;;;;;20.05;31.44;102015.66;16138137;19;129747;-40
2022/04/10 12:33:27;;;;;;;4.38;0.70;;;;;;;20.09;31.34;102014.09;16142828;19;129654;-41
2022/04/10 12:38:53;;;;;;;4.10;0.85;;;;;;;20.09;31.58;102003.88;16140645;19;129820;-40
2022/04/10 12:44:23;;;;;;;6.57;0.65;;;;;;;20.10;31.77;102005.56;16138781;19;129959;-39
2022/04/10 12:50:05;;;;;;;10.30;1.40;;;;;;;20.12;32.48;102006.16;16134546;19;130513;-43
2022/04/10 12:55:31;;;;;;;16.17;5.00;;;;;;;20.19;32.41;101997.75;16137493;19;129498;-43
2022/04/10 13:00:54;;;;;;;24.02;9.38;;;;;;;20.20;33.12;101993.06;16138359;19;129677;-40
2022/04/10 13:06:19;;;;;;;22.25;8.18;;;;;;;20.20;33.63;101993.06;16140230;19;129522;-41
2022/04/10 13:11:41;;;;;;;21.17;6.35;;;;;;;20.20;33.33;101991.13;16135769;19;129423;-40
2022/04/10 13:17:04;;;;;;;26.92;11.10;;;;;;;20.21;34.09;101984.47;16137510;19;129814;-40
2022/04/10 13:22:26;;;;;;;50.80;31.73;;;;;;;20.25;34.03;101977.38;16133787;19;130557;-41
2022/04/10 13:27:51;;;;;;;66.05;40.10;;;;;;;20.27;34.09;101971.59;16139137;19;129718;-40
2022/04/10 13:33:13;;;;;;;71.30;42.27;;;;;;;20.28;34.73;101968.59;16138902;19;130497;-41
2022/04/10 13:38:35;;;;;;;58.15;32.90;;;;;;;20.27;34.75;101961.34;16139044;19;129117;-41
2022/04/10 13:43:59;;;;;;;51.42;29.92;;;;;;;20.25;34.70;101955.16;16135228;19;129789;-42
2022/04/10 13:49:20;;;;;;;50.42;25.98;;;;;;;20.23;34.82;101946.19;16130353;19;130731;-40
2022/04/10 13:54:42;;;;;;;43.40;18.70;;;;;;;20.23;34.22;101948.97;16138784;19;129872;-42
2022/04/10 14:00:05;;;;;;;33.15;17.45;;;;;;;20.23;34.23;101946.19;16137791;19;129416;-44
2022/04/10 14:05:27;;;;;;;39.17;17.67;;;;;;;20.24;33.99;101947.91;16137772;19;129714;-44
2022/04/10 14:10:49;;;;;;;35.45;16.20;;;;;;;20.24;34.01;101942.34;16131029;19;129306;-44
2022/04/10 14:16:11;;;;;;;32.60;15.68;;;;;;;20.22;34.48;101944.50;16131840;19;130635;-41
2022/04/10 14:21:33;;;;;;;28.63;15.10;;;;;;;20.24;34.33;101939.56;16134141;19;130393;-42
2022/04/10 14:26:57;;;;;;;26.73;10.85;;;;;;;20.23;33.58;101932.31;16131799;19;132160;-42
2022/04/10 14:32:19;;;;;;;22.65;9.90;;;;;;;20.24;33.48;101927.63;16131059;19;130934;-44
2022/04/10 14:37:41;;;;;;;17.45;7.97;;;;;;;20.24;33.46;101928.44;16131547;19;128984;-41
2022/04/10 14:43:02;;;;;;;13.65;6.95;;;;;;;20.21;33.14;101920.56;16134124;19;129830;-40
2022/04/10 14:48:24;;;;;;;15.80;6.88;;;;;;;20.21;33.06;101916.97;16140207;19;129498;-42
2022/04/10 14:53:46;;;;;;;13.23;5.82;;;;;;;20.18;33.26;101917.41;16149527;19;129010;-42
2022/04/10 14:59:09;;;;;;;12.02;5.10;;;;;;;20.17;32.73;101921.28;16146264;19;129476;-42
2022/04/10 15:04:31;;;;;;;9.98;4.88;;;;;;;20.17;33.04;101915.72;16140996;19;129411;-46
2022/04/10 15:09:54;;;;;;;8.98;4.30;;;;;;;20.18;32.88;101907.19;16141864;19;130414;-40
2022/04/10 15:15:16;;;;;;;8.45;3.85;;;;;;;20.17;32.78;101899.91;16143606;19;130253;-43
2022/04/10 15:20:37;;;;;;;8.68;3.92;;;;;;;20.20;32.76;101896.66;16142537;19;131597;-43
2022/04/10 15:25:59;;;;;;;12.15;3.60;;;;;;;20.20;32.71;101891.09;16144927;19;129621;-44
2022/04/10 15:31:23;;;;;;;6.90;2.67;;;;;;;20.22;32.96;101896.44;16141937;19;129584;-40
2022/04/10 15:36:45;;;;;;;7.88;2.72;;;;;;;20.22;32.47;101886.16;16146047;19;129509;-40
2022/04/10 15:42:07;;;;;;;9.85;3.03;;;;;;;20.19;32.69;101886.63;16143986;19;129825;-41
2022/04/10 15:47:29;;;;;;;7.80;2.70;;;;;;;20.15;32.39;101885.41;16137114;19;129333;-42
2022/04/10 15:52:51;;;;;;;7.45;1.80;;;;;;;20.11;32.21;101879.47;16136192;19;130433;-45
2022/04/10 15:58:16;;;;;;;8.43;1.92;;;;;;;20.07;32.51;101863.47;16143545;19;129824;-43
2022/04/10 16:03:38;;;;;;;4.28;1.70;;;;;;;20.04;32.23;101861.19;16143868;19;129510;-44
2022/04/10 16:09:00;;;;;;;5.65;1.90;;;;;;;20.01;31.98;101856.09;16142687;19;130496;-44
2022/04/10 16:14:22;;;;;;;2.92;1.45;;;;;;;19.96;32.09;101863.16;16138445;19;130556;-42
2022/04/10 16:19:44;;;;;;;4.10;1.73;;;;;;;19.90;32.32;101866.88;16145362;19;129238;-45
2022/04/10 16:25:06;;;;;;;5.22;1.38;;;;;;;19.89;31.85;101861.53;16137900;19;129604;-43
2022/04/10 16:30:29;;;;;;;4.35;1.35;;;;;;;19.84;31.56;101862.25;16140266;19;129498;-44
2022/04/10 16:35:51;;;;;;;6.95;1.48;;;;;;;19.80;31.71;101863.81;16144014;19;130101;-44
2022/04/10 16:41:12;;;;;;;3.47;1.50;;;;;;;19.77;31.50;101867.03;16142205;19;129561;-43
2022/04/10 16:46:34;;;;;;;2.78;1.33;;;;;;;19.72;31.77;101870.50;16136207;19;129674;-43
2022/04/10 16:51:56;;;;;;;4.35;1.80;;;;;;;19.65;31.71;101865.03;16138843;19;129349;-43
2022/04/10 16:57:20;;;;;;;5.75;2.38;;;;;;;19.60;32.10;101862.06;16142563;19;129002;-43
2022/04/10 17:02:42;;;;;;;6.82;3.05;;;;;;;19.59;32.24;101863.16;16137042;19;129631;-45
2022/04/10 17:08:05;;;;;;;5.63;3.97;;;;;;;19.55;32.44;101864.72;16136214;19;130370;-44
2022/04/10 17:13:27;;;;;;;6.45;3.40;;;;;;;19.53;32.28;101862.16;16132182;19;130324;-44
2022/04/10 17:18:49;;;;;;;9.77;7.25;;;;;;;19.54;32.39;101868.56;16137342;19;132356;-43
2022/04/10 17:24:11;;;;;;;8.70;7.80;;;;;;;19.50;32.47;101873.72;16133068;19;129693;-41
2022/04/10 17:29:33;;;;;;;10.63;8.38;;;;;;;19.50;32.33;101867.31;16139221;19;129951;-46
2022/04/10 17:34:55;;;;;;;9.43;7.55;;;;;;;19.43;32.12;101861.84;16141688;19;129272;-43
2022/04/10 17:40:16;;;;;;;8.88;8.02;;;;;;;19.38;32.13;101867.25;16140664;19;128858;-42
2022/04/10 17:45:38;;;;;;;12.48;7.63;;;;;;;19.33;32.26;101875.38;16139044;19;129913;-44
2022/04/10 17:51:00;;;;;;;11.05;9.88;;;;;;;19.30;32.06;101865.59;16132285;19;129081;-44
2022/04/10 17:56:22;;;;;;;33.15;10.73;;;;;;;19.27;31.55;101871.59;16132992;19;130285;-44
2022/04/10 18:01:44;;;;;;;16.08;8.75;;;;;;;19.31;31.69;101872.84;16137127;19;129523;-42
2022/04/10 18:07:06;;;;;;;17.83;8.52;;;;;;;19.39;32.14;101885.56;16131376;19;129920;-41
2022/04/10 18:12:28;;;;;;;12.45;7.00;;;;;;;19.35;32.22;101881.56;16126141;19;130666;-44
2022/04/10 18:17:50;;;;;;;12.63;6.68;;;;;;;19.34;32.19;101886.25;16133048;19;129539;-43
2022/04/10 18:23:12;;;;;;;13.40;5.97;;;;;;;19.32;32.47;101877.28;16130026;19;129410;-41
2022/04/10 18:28:34;;;;;;;12.45;5.43;;;;;;;19.31;32.48;101877.53;16135951;19;130009;-41
2022/04/10 18:33:57;;;;;;;17.80;5.97;;;;;;;19.30;32.23;101873.06;16129720;19;129768;-46
2022/04/10 18:39:18;;;;;;;13.27;5.15;;;;;;;19.26;32.55;101872.66;16134229;19;129099;-42
2022/04/10 18:44:40;;;;;;;15.90;4.80;;;;;;;19.26;32.37;101872.66;16133027;19;129212;-42
2022/04/10 18:50:02;;;;;;;7.03;4.50;;;;;;;19.24;32.87;101869.28;16133661;19;129179;-45
2022/04/10 18:55:24;;;;;;;6.13;3.63;;;;;;;19.24;32.52;101880.38;16134096;19;129127;-42
2022/04/10 19:00:46;;;;;;;6.15;3.97;;;;;;;19.21;32.64;101875.25;16128668;19;129345;-41
2022/04/10 19:06:11;;;;;;;4.97;3.40;;;;;;;19.19;32.85;101877.41;16133908;19;129681;-43
2022/04/10 19:11:33;;;;;;;5.38;3.08;;;;;;;19.17;33.00;101885.94;16131129;19;130118;-43
2022/04/10 19:16:56;;;;;;;5.43;2.80;;;;;;;19.18;32.92;101878.47;16131507;19;128907;-43
2022/04/10 19:22:24;;;;;;;5.30;3.05;;;;;;;19.17;32.81;101883.16;16129289;19;131526;-40
2022/04/10 19:27:47;;;;;;;6.55;2.33;;;;;;;19.17;32.85;101887.88;16132631;19;129428;-41
2022/04/10 19:33:09;;;;;;;5.28;2.97;;;;;;;19.15;33.36;101890.84;16136944;19;129680;-42
2022/04/10 19:38:31;;;;;;;7.38;2.30;;;;;;;19.13;33.01;101889.41;16145804;19;130900;-42
2022/04/10 19:43:53;;;;;;;5.25;2.17;;;;;;;19.14;32.99;101874.47;16146256;19;130117;-42
2022/04/10 19:49:15;;;;;;;3.90;2.13;;;;;;;19.13;33.04;101883.84;16145664;19;129925;-42
2022/04/10 19:54:37;;;;;;;6.68;1.80;;;;;;;19.12;33.45;101890.47;16140340;19;132159;-44
2022/04/10 19:59:59;;;;;;;3.65;1.70;;;;;;;19.12;33.05;101893.25;16144739;19;130633;-44
2022/04/10 20:05:21;;;;;;;2.95;1.50;;;;;;;19.10;33.11;101887.94;16144709;19;129365;-42
2022/04/10 20:10:43;;;;;;;4.07;1.90;;;;;;;19.08;33.56;101893.69;16143965;19;129703;-43
2022/04/10 20:16:05;;;;;;;3.05;1.38;;;;;;;19.10;33.36;101900.94;16143270;19;130636;-42
2022/04/10 20:21:27;;;;;;;4.32;2.22;;;;;;;19.09;33.22;101900.09;16139991;19;130024;-42
2022/04/10 20:26:48;;;;;;;4.13;1.60;;;;;;;19.07;32.87;101902.25;16144696;19;129637;-41
2022/04/10 20:32:10;;;;;;;3.05;1.83;;;;;;;19.05;32.85;101896.94;16140635;19;130380;-41
2022/04/10 20:37:32;;;;;;;6.45;1.75;;;;;;;19.06;33.08;101895.88;16139555;19;131703;-39
2022/04/10 20:42:54;;;;;;;5.28;1.77;;;;;;;19.08;32.97;101892.84;16137736;19;131004;-44
2022/04/10 20:48:16;;;;;;;3.78;1.80;;;;;;;19.10;32.81;101881.53;16133849;19;129812;-43
2022/04/10 20:53:38;;;;;;;5.57;1.80;;;;;;;19.11;32.76;101870.22;16121890;19;130268;-42
2022/04/10 20:58:59;;;;;;;5.43;2.13;;;;;;;19.11;32.62;101877.69;16138148;19;130439;-41
2022/04/10 21:04:21;;;;;;;8.05;2.20;;;;;;;19.08;32.50;101857.63;16133314;19;129407;-40
2022/04/10 21:09:43;;;;;;;3.20;1.77;;;;;;;19.06;32.67;101857.03;16130734;19;132715;-42
2022/04/10 21:15:05;;;;;;;5.80;2.00;;;;;;;19.05;32.53;101854.47;16127392;19;129861;-41
2022/04/10 21:20:27;;;;;;;5.20;1.92;;;;;;;19.05;32.88;101849.78;16132427;19;130548;-40
2022/04/10 21:25:49;;;;;;;3.97;1.60;;;;;;;19.03;32.67;101846.38;16139331;19;128898;-40
2022/04/10 21:31:11;;;;;;;5.95;1.90;;;;;;;19.02;32.49;101849.38;16135142;19;129081;-40
2022/04/10 21:36:33;;;;;;;4.43;1.50;;;;;;;19.01;32.71;101859.63;16133970;19;129418;-43
2022/04/10 21:41:54;;;;;;;8.05;1.88;;;;;;;19.00;32.90;101852.38;16138792;19;130425;-40
2022/04/10 21:47:16;;;;;;;4.75;1.45;;;;;;;19.00;32.61;101854.31;16128517;19;129370;-40
2022/04/10 21:52:38;;;;;;;3.28;1.05;;;;;;;18.97;32.76;101852.00;16133583;19;130334;-41
2022/04/10 21:58:00;;;;;;;5.55;0.98;;;;;;;18.97;33.04;101857.53;16126475;19;130409;-40
2022/04/10 22:03:22;;;;;;;1.70;1.00;;;;;;;18.94;32.69;101847.75;16132405;19;129937;-44
2022/04/10 22:08:43;;;;;;;1.30;0.85;;;;;;;18.92;33.07;101847.13;16131866;19;130328;-42
2022/04/10 22:14:05;;;;;;;4.28;1.13;;;;;;;18.90;32.86;101840.94;16127640;19;129702;-43
2022/04/10 22:19:27;;;;;;;4.30;1.00;;;;;;;18.88;32.96;101829.22;16130566;19;130963;-40
2022/04/10 22:24:50;;;;;;;2.08;0.90;;;;;;;18.87;33.06;101833.94;16130029;19;132416;-42
2022/04/10 22:30:12;;;;;;;1.15;0.82;;;;;;;18.86;33.03;101835.00;16128308;19;129742;-39
2022/04/10 22:35:33;;;;;;;1.73;0.80;;;;;;;18.86;33.14;101828.59;16131139;19;129988;-40
2022/04/10 22:40:55;;;;;;;1.50;1.05;;;;;;;18.83;33.02;101827.13;16132094;19;130557;-46
2022/04/10 22:46:18;;;;;;;1.20;0.75;;;;;;;18.81;32.74;101825.69;16126286;19;130255;-42
2022/04/10 22:51:39;;;;;;;1.67;0.80;;;;;;;18.80;33.18;101824.81;16126469;19;130642;-39
2022/04/10 22:57:01;;;;;;;2.08;0.90;;;;;;;18.81;32.71;101834.00;16127330;19;130908;-40
2022/04/10 23:40:41;;;;;;;4.03;0.73;;;;;;;18.66;33.18;101801.91;16139335;19;130269;-42
2022/04/10 23:46:06;;;;;;;1.75;0.60;;;;;;;18.66;33.20;101796.38;16142650;19;129934;-41
2022/04/10 23:51:28;;;;;;;2.63;0.40;;;;;;;18.64;33.11;101790.19;16145815;19;129404;-43
2022/04/10 23:56:50;;;;;;;2.17;0.70;;;;;;;18.65;33.02;101788.25;16144315;19;129475;-43
